Time;durP1;ratioP1;P1;durP2;ratioP2;P2;SDS_P1;SDS_P2;PMS_P1;PMS_P2;Temp;Humidity;BMP_temperature;BMP_pressure;BME280_temperature;BME280_humidity;BME280_pressure;Samples;Min_cycle;Max_cycle;Signal;HPM_P1;HPM_P2
2022/01/04 00:00:12;;;;;;;18.57;4.08;;;;;;;5.84;95.06;99545.19;1778632;78;98667;-69
2022/01/04 00:02:41;;;;;;;14.40;3.72;;;;;;;5.89;94.79;99545.03;1777500;78;26508;-69
2022/01/04 00:05:10;;;;;;;16.40;4.85;;;;;;;5.90;94.88;99538.78;1780016;79;25927;-69
2022/01/04 00:07:36;;;;;;;11.63;3.55;;;;;;;5.90;94.83;99541.91;1788961;78;98457;-69
2022/01/04 00:10:05;;;;;;;13.32;4.40;;;;;;;5.89;94.53;99533.06;1792752;78;25800;-69
2022/01/04 00:15:16;;;;;;;13.15;4.62;;;;;;;5.88;94.84;99518.00;1756354;80;26282;-69
2022/01/04 00:17:42;;;;;;;16.90;4.28;;;;;;;5.85;94.82;99519.00;1743194;80;98637;-69
2022/01/04 00:20:09;;;;;;;18.05;4.45;;;;;;;5.83;94.75;99518.66;1738544;80;27394;-71
2022/01/04 00:22:35;;;;;;;20.15;5.08;;;;;;;5.80;94.73;99522.31;1744196;81;26374;-70
2022/01/04 00:25:03;;;;;;;11.95;4.15;;;;;;;5.78;94.78;99528.63;1720141;81;98509;-70
2022/01/04 00:27:31;;;;;;;16.93;4.50;;;;;;;5.77;94.77;99529.55;1740271;81;26252;-70
2022/01/04 00:29:56;;;;;;;16.10;4.45;;;;;;;5.74;94.76;99520.37;1725227;81;98566;-71
2022/01/04 00:32:22;;;;;;;12.03;4.42;;;;;;;5.71;94.20;99525.35;1754351;80;27409;-70
2022/01/04 00:34:48;;;;;;;19.15;4.97;;;;;;;5.71;94.62;99522.70;1757372;80;25850;-70
2022/01/04 00:37:16;;;;;;;19.62;6.33;;;;;;;5.67;94.63;99514.45;1752562;80;98450;-70
2022/01/04 00:39:41;;;;;;;26.42;6.00;;;;;;;5.64;94.62;99509.72;1744332;80;26343;-70
2022/01/04 00:42:07;;;;;;;25.27;6.55;;;;;;;5.58;94.60;99508.64;1745742;80;98552;-70
2022/01/04 00:44:34;;;;;;;24.52;6.55;;;;;;;5.54;94.62;99509.23;1755042;80;29557;-71
2022/01/04 00:47:00;;;;;;;13.53;4.90;;;;;;;5.50;94.66;99504.50;1758097;80;25864;-71
2022/01/04 00:49:26;;;;;;;14.78;4.70;;;;;;;5.45;94.60;99507.81;1757644;79;98502;-70
2022/01/04 00:51:53;;;;;;;17.25;5.78;;;;;;;5.43;94.53;99499.04;1755903;80;25897;-70
2022/01/04 00:54:22;;;;;;;16.50;4.65;;;;;;;5.42;94.68;99491.13;1758796;79;98376;-69
2022/01/04 00:56:49;;;;;;;15.60;5.17;;;;;;;5.38;94.63;99485.54;1725644;81;45655;-70
2022/01/04 00:59:17;;;;;;;16.52;5.00;;;;;;;5.35;94.65;99489.19;1760637;79;25795;-70
2022/01/04 01:01:43;;;;;;;17.48;5.03;;;;;;;5.33;94.66;99488.84;1717445;81;98180;-70
2022/01/04 01:04:13;;;;;;;15.85;5.80;;;;;;;5.28;94.63;99479.73;1728159;81;25792;-70
2022/01/04 01:06:40;;;;;;;15.83;4.45;;;;;;;5.27;94.69;99488.63;1755520;80;98464;-70
2022/01/04 01:09:06;;;;;;;14.33;4.40;;;;;;;5.25;94.69;99477.20;1710963;80;27781;-70
2022/01/04 01:11:32;;;;;;;11.88;4.17;;;;;;;5.26;94.71;99476.73;1749690;80;98478;-70
2022/01/04 01:13:58;;;;;;;14.13;3.80;;;;;;;5.26;94.73;99469.63;1755928;80;26522;-70
2022/01/04 01:16:24;;;;;;;14.63;4.53;;;;;;;5.26;94.71;99476.73;1759874;79;25843;-70
2022/01/04 01:18:50;;;;;;;12.90;4.72;;;;;;;5.24;94.74;99463.52;1753920;79;98344;-70
2022/01/04 01:21:16;;;;;;;16.27;4.97;;;;;;;5.23;94.74;99469.30;1756540;79;27363;-70
2022/01/04 01:23:43;;;;;;;19.42;4.60;;;;;;;5.27;94.84;99457.21;1701829;82;98547;-70
2022/01/04 01:26:09;;;;;;;16.57;4.92;;;;;;;5.30;94.92;99456.62;1755606;80;26229;-70
2022/01/04 01:28:39;;;;;;;11.45;4.35;;;;;;;5.33;94.92;99459.63;1756001;80;26480;-71
2022/01/04 01:31:06;;;;;;;17.57;4.47;;;;;;;5.37;94.94;99450.13;1759264;80;98438;-69
2022/01/04 01:33:33;;;;;;;13.28;4.40;;;;;;;5.41;94.94;99452.20;1762036;79;28126;-70
2022/01/04 01:36:01;;;;;;;10.63;4.42;;;;;;;5.44;94.96;99453.40;1750965;80;98526;-70
2022/01/04 01:38:26;;;;;;;14.73;3.52;;;;;;;5.46;94.99;99444.91;1755914;80;25743;-70
2022/01/04 01:40:53;;;;;;;11.43;3.12;;;;;;;5.49;94.98;99446.97;1761680;79;26587;-70
2022/01/04 01:43:24;;;;;;;13.00;3.55;;;;;;;5.51;95.00;99445.58;1760482;80;97614;-70
2022/01/04 01:45:51;;;;;;;9.48;3.12;;;;;;;5.54;95.05;99447.64;1756822;80;27456;-70
2022/01/04 01:48:16;;;;;;;5.75;3.00;;;;;;;5.57;95.04;99445.31;1751629;80;98271;-70
2022/01/04 01:50:42;;;;;;;9.75;3.42;;;;;;;5.58;95.03;99447.52;1749864;80;26312;-70
2022/01/04 01:53:08;;;;;;;10.53;3.10;;;;;;;5.61;95.07;99448.24;1755654;80;26426;-70
2022/01/04 01:55:36;;;;;;;10.35;3.08;;;;;;;5.63;95.07;99444.19;1754087;80;98461;-70
2022/01/04 01:58:05;;;;;;;8.78;3.37;;;;;;;5.66;95.13;99430.77;1756719;79;27468;-70
2022/01/04 02:00:31;;;;;;;7.92;3.15;;;;;;;5.69;95.13;99445.27;1756199;80;98252;-70
2022/01/04 02:02:59;;;;;;;13.72;3.12;;;;;;;5.71;95.19;99438.09;1757041;80;25810;-70
2022/01/04 02:05:29;;;;;;;14.18;3.55;;;;;;;5.72;95.18;99425.19;1758723;80;25962;-70
2022/01/04 02:07:59;;;;;;;12.98;3.47;;;;;;;5.74;95.15;99425.98;1748262;80;98286;-70
2022/01/04 02:10:27;;;;;;;11.12;3.42;;;;;;;5.74;95.17;99433.97;1696874;82;27454;-70
2022/01/04 02:12:54;;;;;;;14.18;4.22;;;;;;;5.73;95.14;99425.59;1748953;79;98568;-70
2022/01/04 02:15:24;;;;;;;15.88;3.70;;;;;;;5.73;95.13;99425.59;1752697;79;25812;-70
2022/01/04 02:17:50;;;;;;;10.40;3.45;;;;;;;5.73;95.19;99422.94;1751010;79;98512;-70
2022/01/04 02:20:17;;;;;;;16.95;4.15;;;;;;;5.71;95.17;99419.02;1753846;79;26272;-70
2022/01/04 02:22:44;;;;;;;18.12;3.47;;;;;;;5.72;95.15;99421.20;1753529;79;28583;-70
2022/01/04 02:25:12;;;;;;;12.50;4.65;;;;;;;5.71;95.16;99418.15;1751520;79;98395;-69
2022/01/04 02:27:42;;;;;;;9.98;4.22;;;;;;;5.66;95.13;99414.82;1750832;79;25722;-70
2022/01/04 02:30:16;;;;;;;11.12;3.60;;;;;;;5.64;95.13;99408.70;1756812;79;98462;-70
2022/01/04 02:32:46;;;;;;;20.70;3.80;;;;;;;5.60;95.11;99397.34;1753107;79;26376;-70
2022/01/04 02:35:18;;;;;;;11.75;4.17;;;;;;;5.55;95.09;99396.67;1742943;79;27501;-71
2022/01/04 02:37:44;;;;;;;8.50;3.58;;;;;;;5.51;95.11;99391.95;1752389;79;98161;-70
2022/01/04 02:40:13;;;;;;;9.73;3.33;;;;;;;5.49;95.10;99391.63;1752396;79;25813;-70
2022/01/04 02:42:40;;;;;;;13.62;4.80;;;;;;;5.45;95.12;99390.02;1747228;79;97290;-70
2022/01/04 02:45:08;;;;;;;11.60;4.15;;;;;;;5.43;95.17;99394.08;1753299;79;25873;-70
2022/01/04 02:47:35;;;;;;;15.83;4.37;;;;;;;5.41;95.16;99386.63;1751643;79;98654;-70
2022/01/04 02:50:04;;;;;;;13.10;3.95;;;;;;;5.38;95.12;99389.42;1754607;79;25716;-70
2022/01/04 02:52:32;;;;;;;13.98;4.40;;;;;;;5.34;95.09;99382.97;1758199;79;28189;-70
2022/01/04 02:54:58;;;;;;;14.10;4.03;;;;;;;5.31;95.10;99384.43;1749565;79;98516;-70
2022/01/04 02:57:26;;;;;;;14.05;3.92;;;;;;;5.27;95.10;99373.53;1751455;79;25812;-69
2022/01/04 02:59:53;;;;;;;13.48;4.20;;;;;;;5.25;95.07;99376.25;1746386;79;98523;-70
2022/01/04 03:02:21;;;;;;;12.28;4.03;;;;;;;5.20;95.09;99368.97;1749568;79;26546;-70
2022/01/04 03:04:47;;;;;;;15.78;3.92;;;;;;;5.18;95.13;99365.52;1753675;79;25770;-70
2022/01/04 03:07:17;;;;;;;11.00;4.47;;;;;;;5.15;95.11;99364.31;1752332;79;98339;-70
2022/01/04 03:09:44;;;;;;;14.03;4.22;;;;;;;5.12;95.15;99366.63;1775643;79;26011;-70
2022/01/04 03:12:11;;;;;;;10.25;4.10;;;;;;;5.13;95.18;99366.17;1775743;79;98567;-70
2022/01/04 03:14:37;;;;;;;13.83;4.37;;;;;;;5.11;95.19;99363.58;1776939;79;25784;-70
2022/01/04 03:17:04;;;;;;;10.10;3.55;;;;;;;5.09;95.20;99360.59;1752296;80;26535;-69
2022/01/04 03:19:34;;;;;;;6.55;3.35;;;;;;;5.09;95.19;99361.45;1742240;80;98343;-70
2022/01/04 03:22:04;;;;;;;17.73;4.00;;;;;;;5.08;95.21;99353.55;1734456;80;26487;-70
2022/01/04 03:24:30;;;;;;;11.53;3.70;;;;;;;5.08;95.22;99348.23;1776302;79;98359;-70
2022/01/04 03:26:56;;;;;;;16.55;5.20;;;;;;;5.08;95.24;99352.22;1739783;80;26324;-70
2022/01/04 03:29:23;;;;;;;10.05;4.58;;;;;;;5.07;95.28;99347.83;1781955;79;25722;-70
2022/01/04 03:31:50;;;;;;;16.80;5.87;;;;;;;5.07;95.27;99343.85;1781403;78;98108;-70
2022/01/04 03:34:19;;;;;;;16.77;7.37;;;;;;;5.06;95.29;99327.05;1779313;79;25707;-70
2022/01/04 03:36:50;;;;;;;13.70;5.85;;;;;;;5.06;95.28;99328.84;1784280;79;98386;-70
2022/01/04 03:39:17;;;;;;;21.57;5.80;;;;;;;5.05;95.25;99312.51;1779204;78;25758;-70
2022/01/04 03:41:46;;;;;;;16.85;6.17;;;;;;;5.04;95.30;99308.13;1772397;78;98703;-70
2022/01/04 03:44:19;;;;;;;18.10;5.40;;;;;;;5.05;95.33;99305.88;1777357;78;26453;-70
2022/01/04 03:46:43;;;;;;;24.05;6.37;;;;;;;5.05;95.32;99312.51;1781171;78;27643;-69
2022/01/04 03:49:11;;;;;;;21.87;5.92;;;;;;;5.04;95.29;99297.50;1782959;79;98467;-70
2022/01/04 03:51:38;;;;;;;16.17;5.80;;;;;;;5.03;95.34;99297.11;1783735;78;25750;-69
2022/01/04 03:54:06;;;;;;;21.60;5.58;;;;;;;5.03;95.33;99299.77;1783733;79;98603;-69
2022/01/04 03:56:33;;;;;;;21.17;6.92;;;;;;;5.02;95.38;99298.90;1780194;79;25817;-69
2022/01/04 03:58:59;;;;;;;16.20;6.03;;;;;;;5.05;95.44;99295.25;1776902;79;25779;-69
2022/01/04 04:01:25;;;;;;;11.40;5.87;;;;;;;5.05;95.41;99291.27;1782266;78;98429;-69
2022/01/04 04:03:53;;;;;;;19.92;6.03;;;;;;;5.06;95.41;99294.31;1747757;80;26761;-69
2022/01/04 04:06:19;;;;;;;16.10;6.05;;;;;;;5.08;95.45;99293.79;1783807;78;98546;-69
2022/01/04 04:08:45;;;;;;;16.67;5.67;;;;;;;5.07;95.43;99286.75;1782181;79;25758;-69
2022/01/04 04:11:11;;;;;;;19.70;6.58;;;;;;;5.07;95.39;99302.22;1775926;78;25800;-70
2022/01/04 04:13:38;;;;;;;14.30;5.60;;;;;;;5.08;95.41;99293.79;1776128;78;98407;-69
2022/01/04 04:16:05;;;;;;;16.52;6.95;;;;;;;5.08;95.39;99283.17;1781112;78;25743;-70
2022/01/04 04:18:32;;;;;;;23.95;7.15;;;;;;;5.07;95.41;99277.45;1779409;79;98380;-69
2022/01/04 04:20:57;;;;;;;20.95;8.00;;;;;;;5.08;95.44;99276.53;1780370;78;26441;-70
2022/01/04 04:23:23;;;;;;;19.87;8.08;;;;;;;5.10;95.51;99274.67;1784423;78;25856;-70
2022/01/04 04:25:50;;;;;;;20.50;7.67;;;;;;;5.10;95.52;99270.69;1754103;80;98278;-70
2022/01/04 04:28:17;;;;;;;19.35;8.18;;;;;;;5.10;95.51;99274.20;1745736;80;25377;-70
2022/01/04 04:30:43;;;;;;;20.72;7.03;;;;;;;5.09;95.48;99277.79;1732712;80;98485;-70
2022/01/04 04:33:08;;;;;;;17.35;7.10;;;;;;;5.07;95.48;99267.70;1719909;81;26309;-70
2022/01/04 04:35:34;;;;;;;12.47;6.15;;;;;;;5.07;95.51;99269.02;1743720;80;98666;-70
2022/01/04 04:38:02;;;;;;;28.67;5.83;;;;;;;5.07;95.52;99267.70;1746012;80;27521;-70
2022/01/04 04:40:28;;;;;;;14.25;6.00;;;;;;;5.06;95.53;99262.45;1746655;80;25778;-70
2022/01/04 04:42:57;;;;;;;15.95;6.00;;;;;;;5.04;95.51;99261.19;1779114;79;98466;-69
2022/01/04 04:45:23;;;;;;;16.35;6.22;;;;;;;5.05;95.58;99258.07;1776031;79;25771;-70
2022/01/04 04:47:49;;;;;;;14.15;6.83;;;;;;;5.03;95.56;99252.83;1778723;79;98591;-70
2022/01/04 04:50:21;;;;;;;16.95;6.20;;;;;;;5.04;95.55;99252.36;1778327;78;27489;-70
2022/01/04 04:52:46;;;;;;;23.83;7.07;;;;;;;5.03;95.54;99251.96;1778918;78;26276;-70
2022/01/04 04:55:14;;;;;;;19.62;6.35;;;;;;;5.01;95.56;99248.51;1776308;79;98575;-69
2022/01/04 04:57:40;;;;;;;20.15;7.25;;;;;;;5.03;95.59;99249.30;1779751;79;25967;-70
2022/01/04 05:00:10;;;;;;;17.35;7.08;;;;;;;5.03;95.62;99244.00;1780418;78;98574;-71
2022/01/04 05:02:37;;;;;;;16.15;7.10;;;;;;;5.04;95.63;99236.43;1784181;78;28148;-70
2022/01/04 05:05:04;;;;;;;21.40;8.25;;;;;;;5.03;95.63;99232.91;1781749;79;26515;-70
2022/01/04 05:07:36;;;;;;;16.65;7.67;;;;;;;5.04;95.67;99233.31;1779344;79;98478;-70
2022/01/04 05:10:06;;;;;;;18.67;8.53;;;;;;;5.05;95.67;99224.41;1766359;79;25975;-70
2022/01/04 05:12:35;;;;;;;14.38;6.92;;;;;;;5.06;95.68;99230.59;1691988;82;98498;-69
2022/01/04 05:15:05;;;;;;;18.95;8.90;;;;;;;5.07;95.69;99222.55;1758346;79;26381;-70
2022/01/04 05:17:32;;;;;;;25.80;10.80;;;;;;;5.09;95.70;99222.48;1756991;79;26160;-70
2022/01/04 05:20:00;;;;;;;20.43;8.15;;;;;;;5.09;95.71;99215.84;1755363;79;98411;-70
2022/01/04 05:22:29;;;;;;;20.32;8.75;;;;;;;5.09;95.72;99218.50;1760580;79;26248;-69
2022/01/04 05:24:55;;;;;;;16.37;7.72;;;;;;;5.11;95.76;99220.62;1756102;80;98422;-70
2022/01/04 05:27:24;;;;;;;17.62;7.62;;;;;;;5.12;95.80;99215.25;1757464;79;27930;-69
2022/01/04 05:29:50;;;;;;;18.30;7.55;;;;;;;5.13;95.79;99213.45;1750756;79;98606;-70
2022/01/04 05:32:16;;;;;;;18.60;8.70;;;;;;;5.13;95.80;99210.80;1755467;79;25774;-69
2022/01/04 05:34:44;;;;;;;12.43;7.45;;;;;;;5.13;95.82;99203.69;1753241;79;25853;-69
2022/01/04 05:37:10;;;;;;;17.42;7.72;;;;;;;5.15;95.84;99204.95;1752355;80;99043;-70
2022/01/04 05:39:39;;;;;;;15.20;7.33;;;;;;;5.15;95.85;99195.66;1755771;79;27470;-70
2022/01/04 05:42:08;;;;;;;16.95;8.78;;;;;;;5.17;95.86;99185.83;1755686;79;98481;-69
2022/01/04 05:44:35;;;;;;;17.57;8.15;;;;;;;5.17;95.84;99180.52;1753146;80;25849;-69
2022/01/04 05:47:04;;;;;;;15.50;7.20;;;;;;;5.17;95.86;99178.72;1751230;80;25744;-70
2022/01/04 05:49:30;;;;;;;18.95;7.90;;;;;;;5.18;95.91;99172.95;1743785;80;98345;-70
2022/01/04 05:51:56;;;;;;;16.37;7.70;;;;;;;5.19;95.94;99168.89;1757241;79;27450;-70
2022/01/04 05:54:23;;;;;;;24.77;8.80;;;;;;;5.20;95.90;99177.72;1760237;79;97770;-70
2022/01/04 05:56:49;;;;;;;21.60;8.18;;;;;;;5.18;95.91;99179.12;1760096;79;25893;-70
2022/01/04 05:59:16;;;;;;;19.65;8.58;;;;;;;5.19;95.91;99169.36;1755593;80;25778;-70
2022/01/04 06:01:45;;;;;;;18.35;7.92;;;;;;;5.18;95.94;99172.48;1755368;79;98823;-70
2022/01/04 06:04:11;;;;;;;20.12;9.10;;;;;;;5.19;95.92;99169.36;1755177;79;27561;-70
2022/01/04 06:06:40;;;;;;;18.65;7.95;;;;;;;5.21;95.95;99166.13;1753545;79;98341;-70
2022/01/04 06:09:08;;;;;;;24.27;9.10;;;;;;;5.20;95.98;99159.95;1756698;80;26499;-70
2022/01/04 06:16:55;;;;;;;15.68;6.87;;;;;;;5.26;96.01;99144.67;1757494;79;27494;-71
2022/01/04 06:19:21;;;;;;;20.37;8.53;;;;;;;5.25;95.98;99142.95;1754347;80;98427;-72
2022/01/04 06:21:50;;;;;;;15.65;8.00;;;;;;;5.25;96.00;99138.50;1755076;79;25888;-71
2022/01/04 06:24:17;;;;;;;14.90;7.92;;;;;;;5.24;95.98;99130.13;1754907;79;97724;-71
2022/01/04 06:26:44;;;;;;;19.40;9.08;;;;;;;5.25;96.01;99133.66;1752830;79;26052;-71
2022/01/04 06:29:14;;;;;;;22.90;9.15;;;;;;;5.26;96.03;99135.38;1744295;80;27461;-70
2022/01/04 06:31:43;;;;;;;17.35;8.58;;;;;;;5.26;96.03;99138.89;1753443;79;98294;-68
2022/01/04 06:34:09;;;;;;;21.60;9.60;;;;;;;5.27;96.05;99131.79;1740470;80;25748;-71
2022/01/04 06:36:36;;;;;;;22.50;6.97;;;;;;;5.28;96.07;99135.70;1719077;81;98429;-71
2022/01/04 06:39:04;;;;;;;22.55;8.98;;;;;;;5.30;96.05;99139.61;1719370;81;26390;-71
2022/01/04 06:41:31;;;;;;;24.27;8.55;;;;;;;5.30;96.07;99137.82;1723267;81;27538;-70
2022/01/04 06:43:57;;;;;;;14.25;7.87;;;;;;;5.31;96.08;99142.20;1725442;81;98392;-69
2022/01/04 06:46:25;;;;;;;22.58;8.95;;;;;;;5.32;96.10;99127.98;1723347;81;26465;-70
2022/01/04 06:48:52;;;;;;;24.25;10.63;;;;;;;5.34;96.10;99129.25;1719157;81;98364;-69
2022/01/04 06:51:19;;;;;;;19.77;10.53;;;;;;;5.34;96.10;99124.80;1754127;79;26617;-69
2022/01/04 06:53:45;;;;;;;18.60;9.63;;;;;;;5.36;96.14;99122.92;1749885;79;98749;-70
2022/01/04 06:56:13;;;;;;;21.80;10.35;;;;;;;5.37;96.18;99121.99;1758865;79;25923;-69
2022/01/04 06:58:39;;;;;;;21.00;10.15;;;;;;;5.38;96.16;99114.42;1753010;80;25742;-69
2022/01/04 07:01:06;;;;;;;16.75;8.70;;;;;;;5.39;96.17;99108.64;1750102;79;98537;-69
2022/01/04 07:03:33;;;;;;;18.37;10.05;;;;;;;5.41;96.20;99112.95;1757929;79;26456;-70
2022/01/04 07:05:59;;;;;;;17.92;9.20;;;;;;;5.42;96.20;99112.02;1750058;80;98820;-70
2022/01/04 07:08:25;;;;;;;18.92;10.20;;;;;;;5.45;96.22;99105.69;1717689;81;27211;-69
2022/01/04 07:10:51;;;;;;;17.15;9.83;;;;;;;5.46;96.23;99096.32;1745758;80;25805;-70
2022/01/04 07:13:20;;;;;;;20.75;10.70;;;;;;;5.47;96.25;99087.41;1743999;80;98485;-69
2022/01/04 07:15:47;;;;;;;23.07;10.53;;;;;;;5.50;96.26;99080.63;1751493;80;25735;-69
2022/01/04 07:18:13;;;;;;;22.62;13.35;;;;;;;5.53;96.28;99070.31;1786315;79;98882;-69
2022/01/04 07:20:39;;;;;;;25.40;12.50;;;;;;;5.55;96.28;99053.83;1782580;78;25820;-69
2022/01/04 07:23:06;;;;;;;27.48;12.98;;;;;;;5.57;96.32;99054.62;1790351;78;25778;-68
2022/01/04 07:25:31;;;;;;;22.42;11.90;;;;;;;5.60;96.33;99061.12;1777738;79;99084;-68
2022/01/04 07:27:59;;;;;;;26.20;13.00;;;;;;;5.64;96.36;99064.48;1788668;78;25744;-69
2022/01/04 07:30:25;;;;;;;27.07;12.65;;;;;;;5.65;96.33;99062.22;1785532;79;98649;-69
2022/01/04 07:32:51;;;;;;;26.37;13.22;;;;;;;5.67;96.34;99063.01;1780458;78;27740;-70
2022/01/04 07:35:18;;;;;;;27.25;13.20;;;;;;;5.67;96.30;99045.27;1742047;80;26518;-69
2022/01/04 07:37:44;;;;;;;25.70;12.95;;;;;;;5.69;96.33;99043.86;1744024;80;98555;-69
2022/01/04 07:40:13;;;;;;;26.77;14.63;;;;;;;5.68;96.31;99043.00;1739509;80;26193;-68
2022/01/04 07:42:42;;;;;;;35.73;19.67;;;;;;;5.69;96.28;99037.21;1785005;78;98579;-69
2022/01/04 07:45:10;;;;;;;42.00;21.23;;;;;;;5.67;96.25;99021.81;1753828;79;26300;-69
2022/01/04 07:47:37;;;;;;;40.30;22.90;;;;;;;5.66;96.26;99019.62;1784294;78;25872;-69
2022/01/04 07:50:10;;;;;;;42.85;26.15;;;;;;;5.67;96.28;99012.03;1776480;78;98409;-69
2022/01/04 07:52:36;;;;;;;42.97;28.87;;;;;;;5.68;96.29;99011.56;1785126;79;26329;-68
2022/01/04 07:55:05;;;;;;;60.38;37.48;;;;;;;5.68;96.29;99011.10;1780658;78;98653;-69
2022/01/04 07:57:35;;;;;;;72.12;45.63;;;;;;;5.67;96.29;99013.37;1780999;78;26168;-69
2022/01/04 08:00:05;;;;;;;81.87;51.77;;;;;;;5.70;96.33;99022.98;1779917;78;98852;-68
2022/01/04 08:02:31;;;;;;;84.25;56.85;;;;;;;5.71;96.36;99023.38;1781927;78;27349;-68
2022/01/04 08:04:59;;;;;;;88.10;61.55;;;;;;;5.72;96.38;99021.11;1781644;78;25988;-68
2022/01/04 08:07:25;;;;;;;94.40;60.52;;;;;;;5.73;96.39;99008.22;1786286;78;99027;-68
2022/01/04 08:09:52;;;;;;;78.00;52.25;;;;;;;5.75;96.41;99005.02;1784537;78;26599;-67
2022/01/04 08:12:20;;;;;;;89.05;59.05;;;;;;;5.77;96.43;98998.68;1759261;80;98852;-69
2022/01/04 08:14:48;;;;;;;78.87;52.53;;;;;;;5.77;96.42;98996.02;1754247;80;26475;-67
2022/01/04 08:17:16;;;;;;;80.38;54.40;;;;;;;5.82;96.49;99001.11;1742752;80;26550;-68
2022/01/04 08:19:42;;;;;;;86.10;56.13;;;;;;;5.83;96.52;98993.52;1755706;80;98492;-68
2022/01/04 08:22:08;;;;;;;81.40;56.30;;;;;;;5.89;96.55;99003.88;1759037;79;27140;-68
2022/01/04 08:24:34;;;;;;;87.22;57.85;;;;;;;5.93;96.56;99002.79;1752971;79;98565;-68
2022/01/04 08:27:02;;;;;;;86.50;59.53;;;;;;;5.95;96.58;99000.05;1756556;79;25804;-68
2022/01/04 08:29:31;;;;;;;79.92;53.58;;;;;;;6.01;96.55;99000.60;1753052;80;25961;-68
2022/01/04 08:32:01;;;;;;;80.50;52.58;;;;;;;6.03;96.53;98995.20;1756098;79;98508;-68
2022/01/04 08:34:29;;;;;;;;;;;;;;;6.07;96.58;98997.63;1757727;79;25832;-68
2022/01/04 08:36:58;;;;;;;80.77;52.73;;;;;;;6.10;96.55;98996.61;1757269;79;83648;-68
2022/01/04 08:39:26;;;;;;;81.42;53.42;;;;;;;6.09;96.61;98989.10;1755257;80;26210;-68
2022/01/04 08:41:59;;;;;;;64.80;46.23;;;;;;;6.12;96.59;98986.28;1757785;79;98724;-68
2022/01/04 08:44:25;;;;;;;69.62;46.55;;;;;;;6.14;96.58;98972.91;1755368;80;25726;-69
2022/01/04 08:46:51;;;;;;;71.60;44.33;;;;;;;6.15;96.57;98978.14;1758102;80;26781;-68
2022/01/04 08:49:17;;;;;;;71.42;44.80;;;;;;;6.16;96.53;98985.19;1757256;79;98591;-68
2022/01/04 08:51:46;;;;;;;62.45;39.92;;;;;;;6.19;96.55;98982.37;1745576;80;25956;-68
2022/01/04 08:54:13;;;;;;;61.30;37.98;;;;;;;6.21;96.53;98972.11;1723301;81;98760;-68
2022/01/04 08:56:40;;;;;;;60.35;37.67;;;;;;;6.24;96.56;98969.30;1736262;80;27358;-68
2022/01/04 08:59:08;;;;;;;65.22;36.03;;;;;;;6.27;96.61;98967.80;1727359;81;25764;-69
2022/01/04 09:01:38;;;;;;;62.00;36.68;;;;;;;6.29;96.63;98971.24;1756692;79;98774;-70
2022/01/04 09:04:06;;;;;;;51.10;31.40;;;;;;;6.29;96.58;98940.17;1740799;80;26133;-68
2022/01/04 09:06:33;;;;;;;55.52;34.38;;;;;;;6.32;96.62;98940.48;1736033;80;98612;-68
2022/01/04 09:09:00;;;;;;;55.40;32.73;;;;;;;6.33;96.60;98948.86;1755190;79;27525;-67
2022/01/04 09:11:26;;;;;;;52.17;30.77;;;;;;;6.36;96.60;98948.70;1735128;79;25861;-67
2022/01/04 09:14:05;;;;;;;47.62;29.60;;;;;;;6.36;96.54;98946.89;1728426;81;98595;-69
2022/01/04 09:19:07;;;;;;;50.03;27.20;;;;;;;6.42;96.69;98939.05;1740761;80;98632;-68
2022/01/04 09:21:35;;;;;;;36.50;22.40;;;;;;;6.45;96.69;98948.20;1739897;80;27593;-68
2022/01/04 09:24:05;;;;;;;112.80;48.45;;;;;;;6.46;96.66;98935.28;1738777;80;98652;-68
2022/01/04 09:26:31;;;;;;;48.87;24.32;;;;;;;6.47;96.67;98935.67;1744823;80;26423;-68
2022/01/04 09:28:59;;;;;;;43.17;22.98;;;;;;;6.49;96.65;98936.45;1729444;81;25919;-68
2022/01/04 09:31:28;;;;;;;33.98;18.00;;;;;;;6.50;96.67;98935.51;1735479;80;98561;-68
2022/01/04 09:33:59;;;;;;;31.10;18.50;;;;;;;6.52;96.67;98933.63;1739415;80;28972;-68
2022/01/04 09:36:30;;;;;;;31.40;16.07;;;;;;;6.51;96.63;98924.78;1744747;80;98751;-69
2022/01/04 09:38:57;;;;;;;29.12;16.27;;;;;;;6.51;96.65;98915.46;1747510;80;25993;-67
2022/01/04 09:41:23;;;;;;;26.68;15.10;;;;;;;6.56;96.72;98910.36;1717049;81;25867;-67
2022/01/04 09:43:51;;;;;;;29.95;14.98;;;;;;;6.59;96.71;98908.39;1717161;80;98493;-67
2022/01/04 09:46:18;;;;;;;27.20;15.23;;;;;;;6.58;96.65;98902.68;1716649;80;27385;-68
2022/01/04 09:48:44;;;;;;;30.08;14.80;;;;;;;6.60;96.70;98898.13;1752852;79;98684;-69
2022/01/04 09:51:14;;;;;;;26.77;15.13;;;;;;;6.58;96.66;98892.03;1759815;79;26123;-70
2022/01/04 09:53:42;;;;;;;31.82;15.53;;;;;;;6.58;96.69;98892.03;1755956;79;26157;-68
2022/01/04 09:56:13;;;;;;;35.83;16.60;;;;;;;6.60;96.71;98896.80;1757667;79;98546;-71
2022/01/04 09:58:39;;;;;;;41.92;19.98;;;;;;;6.61;96.73;98894.52;1755665;79;27641;-69
2022/01/04 10:01:09;;;;;;;27.73;13.75;;;;;;;6.63;96.72;98885.98;1724405;80;98592;-68
2022/01/04 10:03:37;;;;;;;27.02;14.25;;;;;;;6.65;96.77;98885.42;1747961;79;25808;-67
2022/01/04 10:06:16;;;;;;;31.05;13.80;;;;;;;6.67;96.74;98871.55;1724904;79;98653;-67
2022/01/04 10:09:04;;;;;;;25.70;12.95;;;;;;;6.71;96.80;98869.58;1755914;79;25705;-67
2022/01/04 10:11:39;;;;;;;29.90;14.47;;;;;;;6.73;96.81;98871.69;1752198;79;28270;-67
2022/01/04 10:14:26;;;;;;;24.25;14.10;;;;;;;6.76;96.84;98868.85;1754545;79;98323;-70
2022/01/04 10:17:03;;;;;;;23.45;12.98;;;;;;;6.80;96.82;98859.27;1751779;79;26028;-68
2022/01/04 10:19:44;;;;;;;27.15;14.30;;;;;;;6.82;96.81;98854.72;1753917;79;98528;-68
2022/01/04 10:22:19;;;;;;;29.72;15.83;;;;;;;6.87;96.85;98845.61;1755295;79;25829;-69
2022/01/04 10:24:52;;;;;;;31.95;14.98;;;;;;;6.96;97.01;98841.95;1748917;78;98653;-69
2022/01/04 10:27:37;;;;;;;33.53;15.98;;;;;;;7.04;97.02;98827.72;1742002;79;26099;-69
2022/01/04 10:30:28;;;;;;;31.30;16.00;;;;;;;7.13;97.07;98822.33;1752426;79;98715;-69
2022/01/04 10:33:02;;;;;;;27.67;13.83;;;;;;;7.16;96.92;98819.02;1757020;79;25793;-68
2022/01/04 10:35:45;;;;;;;28.23;13.38;;;;;;;7.20;96.93;98821.02;1753748;79;27181;-67
2022/01/04 10:38:31;;;;;;;22.75;12.20;;;;;;;7.23;96.90;98820.84;1757149;78;98380;-68
2022/01/04 10:41:20;;;;;;;24.32;12.07;;;;;;;7.29;96.94;98822.29;1762054;78;26630;-68
2022/01/04 10:43:51;;;;;;;21.30;11.08;;;;;;;7.35;96.97;98825.45;1747851;79;98599;-68
2022/01/04 10:46:32;;;;;;;20.52;10.88;;;;;;;7.42;97.03;98820.14;1758753;78;26300;-68
2022/01/04 10:48:59;;;;;;;19.37;8.60;;;;;;;7.48;97.05;98809.59;1753816;79;98462;-68
2022/01/04 10:51:30;;;;;;;15.25;7.37;;;;;;;7.56;97.10;98806.46;1748460;79;27397;-68
2022/01/04 10:54:06;;;;;;;;;;;;;;;7.60;97.04;98798.19;1753103;79;98570;-68
2022/01/04 10:56:36;;;;;;;19.48;7.58;;;;;;;7.61;96.96;98789.71;1754313;79;26400;-67
2022/01/04 10:59:07;;;;;;;14.18;7.78;;;;;;;7.63;97.07;98785.14;1747423;79;25982;-68
2022/01/04 11:01:52;;;;;;;13.90;6.97;;;;;;;7.68;97.05;98781.72;1753507;79;97614;-68
2022/01/04 11:04:21;;;;;;;14.05;7.83;;;;;;;7.72;97.07;98781.44;1756929;79;26739;-67
2022/01/04 11:06:49;;;;;;;18.57;8.20;;;;;;;7.80;96.87;98760.97;1750711;79;99341;-67
2022/01/04 11:09:19;;;;;;;14.03;7.65;;;;;;;7.80;96.87;98760.97;1719740;81;26033;-68
2022/01/04 11:11:46;;;;;;;15.55;7.67;;;;;;;7.85;97.04;98761.50;1731901;80;25991;-68
2022/01/04 11:14:15;;;;;;;13.93;8.53;;;;;;;7.88;96.90;98760.45;1772225;79;98529;-68
2022/01/04 11:16:43;;;;;;;17.85;9.00;;;;;;;7.89;96.93;98748.83;1777514;78;28248;-68
2022/01/04 11:19:13;;;;;;;28.27;15.45;;;;;;;7.88;96.79;98741.78;1783196;78;98440;-68
2022/01/04 11:21:44;;;;;;;;;;;;;;;7.84;96.70;98729.11;1779452;79;26588;-68
2022/01/04 11:24:16;;;;;;;18.45;9.30;;;;;;;7.85;96.74;98724.64;1781058;79;83849;-68
2022/01/04 11:26:47;;;;;;;14.80;8.45;;;;;;;7.85;96.83;98709.48;1777993;78;26459;-67
2022/01/04 11:29:16;;;;;;;16.25;10.28;;;;;;;7.91;96.78;98701.58;1778704;79;28171;-67
2022/01/04 11:32:05;;;;;;;17.95;10.25;;;;;;;7.92;96.58;98693.95;1745625;80;98600;-67
2022/01/04 11:34:59;;;;;;;22.50;11.60;;;;;;;7.91;96.62;98693.09;1784994;78;25784;-67
2022/01/04 11:37:25;;;;;;;16.70;10.45;;;;;;;7.86;96.21;98685.01;1778011;78;98583;-69
2022/01/04 11:39:54;;;;;;;20.62;11.53;;;;;;;7.85;96.43;98677.96;1778017;78;25847;-70
2022/01/04 11:42:38;;;;;;;20.80;11.63;;;;;;;7.87;96.51;98669.38;1780995;78;98916;-67
2022/01/04 11:45:10;;;;;;;16.30;8.95;;;;;;;7.89;96.52;98664.33;1783193;78;25332;-67
2022/01/04 11:47:37;;;;;;;19.32;9.18;;;;;;;7.93;96.65;98649.84;1779319;79;25734;-67